Time;durP1;ratioP1;P1;durP2;ratioP2;P2;SDS_P1;SDS_P2;PMS_P1;PMS_P2;Temp;Humidity;BMP_temperature;BMP_pressure;BME280_temperature;BME280_humidity;BME280_pressure;Samples;Min_cycle;Max_cycle;Signal;HPM_P1;HPM_P2
2021/08/25 00:01:37;;;;;;;2.90;1.80;;;24.80;54.20;;;;;;4970880;28;87813;-13
2021/08/25 00:04:03;;;;;;;2.72;1.60;;;24.80;54.20;;;;;;4973726;28;86815;-13
2021/08/25 00:06:29;;;;;;;3.15;1.73;;;24.80;54.30;;;;;;4973151;28;88337;-13
2021/08/25 00:08:55;;;;;;;2.22;1.38;;;24.80;54.30;;;;;;4973864;28;87669;-13
2021/08/25 00:11:21;;;;;;;3.55;1.67;;;24.80;54.40;;;;;;4973236;28;89010;-13
2021/08/25 00:13:47;;;;;;;2.40;1.45;;;24.80;54.30;;;;;;4972590;28;88120;-13
2021/08/25 00:16:13;;;;;;;1.80;1.40;;;24.80;54.40;;;;;;4973660;28;88073;-13
2021/08/25 00:18:38;;;;;;;2.25;1.55;;;24.80;54.40;;;;;;4973950;28;87891;-14
2021/08/25 00:21:04;;;;;;;2.38;1.42;;;24.70;54.40;;;;;;4974022;28;88078;-13
2021/08/25 00:23:30;;;;;;;2.80;1.50;;;24.80;54.50;;;;;;4972917;28;87929;-16
2021/08/25 00:25:58;;;;;;;3.25;1.65;;;24.70;54.40;;;;;;4972758;28;88071;-13
2021/08/25 00:28:24;;;;;;;2.92;1.60;;;24.80;54.50;;;;;;4973090;28;87372;-13
2021/08/25 00:30:53;;;;;;;2.17;1.23;;;24.70;54.50;;;;;;4971236;28;87738;-13
2021/08/25 00:33:18;;;;;;;2.40;1.52;;;24.70;54.60;;;;;;4973819;28;87730;-13
2021/08/25 00:35:44;;;;;;;2.60;1.45;;;24.70;54.60;;;;;;4973083;28;88922;-13
2021/08/25 00:38:10;;;;;;;2.65;1.55;;;24.70;54.60;;;;;;4972050;28;89588;-14
2021/08/25 00:40:35;;;;;;;2.88;1.35;;;24.70;54.70;;;;;;4972320;28;87256;-13
2021/08/25 00:43:09;;;;;;;2.83;1.70;;;24.70;54.70;;;;;;4972876;28;87608;-13
2021/08/25 00:45:43;;;;;;;2.67;1.88;;;24.70;54.70;;;;;;4972808;28;87703;-16
2021/08/25 00:48:12;;;;;;;2.92;1.58;;;24.70;54.70;;;;;;4970806;28;90709;-13
2021/08/25 00:50:38;;;;;;;2.47;1.50;;;24.70;54.80;;;;;;4972808;28;88078;-13
2021/08/25 00:53:06;;;;;;;3.08;1.50;;;24.70;54.90;;;;;;4973598;28;86847;-15
2021/08/25 00:55:37;;;;;;;2.53;1.40;;;24.70;54.90;;;;;;4973950;28;88462;-12
2021/08/25 00:58:03;;;;;;;3.17;1.67;;;24.60;54.90;;;;;;4973581;28;87841;-14
2021/08/25 01:00:28;;;;;;;2.42;1.60;;;24.60;54.90;;;;;;4973815;28;88050;-13
2021/08/25 01:03:05;;;;;;;2.20;1.55;;;24.60;55.00;;;;;;4973216;28;87475;-16
2021/08/25 01:05:34;;;;;;;2.97;1.63;;;24.60;55.00;;;;;;4973083;28;88638;-13
2021/08/25 01:08:02;;;;;;;2.80;1.30;;;24.60;55.00;;;;;;4973513;28;87657;-13
2021/08/25 01:10:30;;;;;;;2.72;1.70;;;24.60;55.00;;;;;;4973138;28;87801;-14
2021/08/25 01:13:00;;;;;;;2.45;1.42;;;24.60;55.10;;;;;;4970420;28;89718;-12
2021/08/25 01:15:27;;;;;;;2.38;1.42;;;24.60;55.10;;;;;;4969789;28;92093;-13
2021/08/25 01:17:57;;;;;;;2.95;1.40;;;24.60;55.20;;;;;;4972645;28;88886;-13
2021/08/25 01:20:24;;;;;;;3.38;1.85;;;24.60;55.20;;;;;;4972585;28;88189;-16
2021/08/25 01:22:50;;;;;;;2.67;1.60;;;24.60;55.20;;;;;;4973212;28;87180;-13
2021/08/25 01:25:16;;;;;;;3.75;1.48;;;24.60;55.70;;;;;;4971112;28;89574;-13
2021/08/25 01:27:50;;;;;;;1.65;1.30;;;24.60;55.20;;;;;;4971447;28;88406;-16
2021/08/25 01:30:17;;;;;;;1.98;1.75;;;24.60;55.30;;;;;;4971423;28;87609;-13
2021/08/25 01:32:43;;;;;;;2.15;1.40;;;24.60;55.30;;;;;;4971649;28;87084;-16
2021/08/25 01:35:09;;;;;;;2.40;1.73;;;24.60;55.30;;;;;;4973066;28;87845;-13
2021/08/25 01:37:35;;;;;;;3.17;1.30;;;24.60;55.30;;;;;;4972077;28;89713;-13
2021/08/25 01:40:02;;;;;;;1.65;1.17;;;24.60;55.40;;;;;;4972420;28;88137;-14
2021/08/25 01:42:27;;;;;;;3.30;1.60;;;24.60;55.40;;;;;;4973136;28;87193;-14
2021/08/25 01:44:53;;;;;;;2.35;1.40;;;24.60;55.50;;;;;;4971961;28;88085;-13
2021/08/25 01:47:20;;;;;;;2.45;1.60;;;24.60;55.40;;;;;;4971973;28;87649;-16
2021/08/25 01:49:52;;;;;;;2.65;1.58;;;24.60;55.50;;;;;;4972214;28;88412;-13
2021/08/25 01:52:19;;;;;;;1.90;1.30;;;24.50;55.50;;;;;;4971760;28;87651;-16
2021/08/25 01:54:49;;;;;;;1.83;1.38;;;24.50;55.50;;;;;;4972256;28;88218;-13
2021/08/25 01:57:15;;;;;;;2.25;1.38;;;24.50;55.50;;;;;;4969626;28;91257;-12
2021/08/25 01:59:40;;;;;;;2.47;1.42;;;24.50;55.60;;;;;;4970865;28;87685;-13
2021/08/25 02:02:06;;;;;;;2.55;1.50;;;24.50;55.60;;;;;;4971183;28;88322;-13
2021/08/25 02:04:32;;;;;;;1.50;1.20;;;24.50;55.60;;;;;;4971014;28;88198;-13
2021/08/25 02:06:58;;;;;;;2.88;1.60;;;24.50;55.70;;;;;;4971652;28;87892;-14
2021/08/25 02:09:24;;;;;;;2.17;1.45;;;24.50;55.70;;;;;;4972281;28;87820;-13
2021/08/25 02:11:50;;;;;;;2.55;1.60;;;24.50;55.70;;;;;;4971656;28;88022;-13
2021/08/25 02:14:16;;;;;;;2.10;1.60;;;24.50;55.70;;;;;;4971162;28;89237;-15
2021/08/25 02:16:42;;;;;;;1.85;1.10;;;24.50;56.30;;;;;;4971406;28;88860;-13
2021/08/25 02:19:08;;;;;;;2.67;1.67;;;24.50;55.80;;;;;;4971955;28;88033;-16
2021/08/25 02:21:34;;;;;;;1.55;1.23;;;24.50;55.80;;;;;;4971703;28;87775;-13
2021/08/25 02:24:00;;;;;;;3.08;1.98;;;24.50;55.80;;;;;;4970062;28;88413;-16
2021/08/25 02:26:25;;;;;;;1.90;1.20;;;24.50;55.90;;;;;;4970358;28;89187;-14
2021/08/25 02:28:56;;;;;;;3.08;1.70;;;24.50;55.90;;;;;;4972181;28;87076;-13
2021/08/25 02:31:22;;;;;;;2.00;1.40;;;24.50;55.90;;;;;;4971199;28;87505;-13
2021/08/25 02:33:48;;;;;;;2.35;1.50;;;24.50;55.90;;;;;;4970793;28;88090;-13
2021/08/25 02:36:16;;;;;;;2.42;1.65;;;24.50;55.90;;;;;;4970803;28;87811;-15
2021/08/25 02:38:43;;;;;;;2.35;1.60;;;24.40;55.90;;;;;;4971424;28;88159;-14
2021/08/25 02:41:13;;;;;;;2.03;1.27;;;24.50;56.00;;;;;;4971401;28;87342;-13
2021/08/25 02:43:39;;;;;;;2.67;1.75;;;24.40;55.90;;;;;;4971004;28;88337;-13
2021/08/25 02:46:05;;;;;;;2.15;1.38;;;24.50;56.10;;;;;;4971245;28;88064;-16
2021/08/25 02:48:31;;;;;;;2.38;1.60;;;24.50;56.60;;;;;;4972114;28;87547;-14
2021/08/25 02:50:57;;;;;;;1.67;1.13;;;24.40;56.10;;;;;;4971672;28;88303;-13
2021/08/25 02:53:22;;;;;;;1.90;1.20;;;24.40;56.10;;;;;;4970083;28;88578;-16
2021/08/25 02:55:48;;;;;;;2.63;1.65;;;24.40;56.60;;;;;;4970169;28;87103;-13
2021/08/25 02:58:14;;;;;;;1.38;1.00;;;24.40;56.10;;;;;;4970273;28;87649;-16
2021/08/25 03:00:40;;;;;;;2.00;1.10;;;24.40;56.10;;;;;;4971050;28;88117;-13
2021/08/25 03:03:06;;;;;;;2.35;1.50;;;24.40;56.20;;;;;;4969956;28;89361;-13
2021/08/25 03:05:31;;;;;;;2.05;1.30;;;24.40;56.20;;;;;;4970854;28;88047;-13
2021/08/25 03:07:57;;;;;;;2.63;1.52;;;24.40;56.20;;;;;;4971181;28;88081;-13
2021/08/25 03:10:23;;;;;;;2.17;1.35;;;24.40;56.20;;;;;;4970715;28;88071;-16
2021/08/25 03:12:49;;;;;;;1.70;1.20;;;24.30;56.20;;;;;;4970841;28;87953;-14
2021/08/25 03:15:15;;;;;;;2.22;1.48;;;24.30;56.20;;;;;;4970675;28;88257;-13
2021/08/25 03:17:41;;;;;;;1.50;1.08;;;24.40;56.30;;;;;;4971071;28;87858;-15
2021/08/25 03:20:09;;;;;;;2.63;1.40;;;24.40;56.30;;;;;;4971117;28;86736;-15
2021/08/25 03:22:36;;;;;;;2.95;1.67;;;24.30;56.30;;;;;;4971009;28;88274;-13
2021/08/25 03:25:03;;;;;;;1.50;1.15;;;24.40;56.40;;;;;;4970345;28;87681;-15
2021/08/25 03:27:28;;;;;;;1.90;1.17;;;24.30;56.30;;;;;;4970490;28;88604;-13
2021/08/25 03:29:54;;;;;;;1.90;1.10;;;24.30;56.40;;;;;;4969580;28;89247;-13
2021/08/25 03:32:20;;;;;;;1.58;1.20;;;24.30;56.40;;;;;;4971006;28;88896;-13
2021/08/25 03:34:45;;;;;;;1.77;1.27;;;24.30;56.40;;;;;;4971031;28;88217;-13
2021/08/25 03:37:11;;;;;;;2.20;1.38;;;24.40;56.50;;;;;;4971597;28;87179;-13
2021/08/25 03:39:37;;;;;;;2.60;1.40;;;24.30;56.40;;;;;;4974167;28;89371;-13
2021/08/25 03:42:02;;;;;;;1.80;1.23;;;24.30;56.50;;;;;;4972865;28;88574;-17
2021/08/25 03:44:28;;;;;;;1.77;1.08;;;24.30;56.50;;;;;;4974482;28;87503;-13
2021/08/25 03:46:54;;;;;;;1.48;1.20;;;24.30;56.50;;;;;;4973861;28;88374;-13
2021/08/25 03:49:19;;;;;;;2.78;1.38;;;24.30;56.50;;;;;;4972616;28;89347;-16
2021/08/25 03:51:45;;;;;;;1.65;1.13;;;24.30;56.50;;;;;;4972824;28;90981;-15
2021/08/25 03:54:11;;;;;;;1.58;1.10;;;24.30;56.60;;;;;;4972774;28;88157;-14
2021/08/25 03:56:36;;;;;;;2.08;1.27;;;24.30;56.60;;;;;;4972168;28;87528;-14
2021/08/25 03:59:03;;;;;;;1.70;1.30;;;24.30;56.60;;;;;;4972638;28;87508;-13
2021/08/25 04:01:29;;;;;;;1.77;1.30;;;24.30;56.70;;;;;;4972512;28;89090;-14
2021/08/25 04:03:55;;;;;;;1.77;1.42;;;24.20;56.70;;;;;;4974146;28;88294;-13
2021/08/25 04:06:21;;;;;;;1.80;1.52;;;24.20;56.70;;;;;;4974123;28;87638;-12
2021/08/25 04:08:46;;;;;;;1.85;1.10;;;24.20;56.70;;;;;;4974140;28;88196;-13
2021/08/25 04:11:18;;;;;;;1.75;1.00;;;24.20;56.70;;;;;;4973824;28;88093;-12
2021/08/25 04:13:44;;;;;;;1.58;1.05;;;24.20;56.70;;;;;;4973813;28;88283;-13
2021/08/25 04:16:09;;;;;;;1.58;1.13;;;24.20;56.80;;;;;;4972089;28;88752;-13
2021/08/25 04:18:35;;;;;;;1.50;1.17;;;24.30;56.80;;;;;;4973860;28;87838;-13
2021/08/25 04:21:00;;;;;;;2.35;1.10;;;24.20;56.80;;;;;;4973274;28;87162;-13
2021/08/25 04:23:26;;;;;;;2.13;1.23;;;24.20;56.80;;;;;;4972930;28;87979;-15
2021/08/25 04:25:52;;;;;;;1.92;1.17;;;24.20;56.80;;;;;;4972948;28;87564;-13
2021/08/25 04:28:17;;;;;;;1.73;0.90;;;24.20;56.90;;;;;;4973568;28;87540;-14
2021/08/25 04:30:43;;;;;;;1.35;1.10;;;24.20;56.90;;;;;;4973162;28;88098;-15
2021/08/25 04:33:08;;;;;;;1.77;1.20;;;24.20;56.90;;;;;;4973463;28;87766;-15
2021/08/25 04:35:34;;;;;;;2.05;1.00;;;24.20;56.90;;;;;;4972423;28;88058;-14
2021/08/25 04:37:59;;;;;;;2.17;1.25;;;24.20;56.90;;;;;;4973506;28;87852;-13
2021/08/25 04:40:25;;;;;;;1.45;1.10;;;24.20;57.00;;;;;;4973017;28;89278;-13
2021/08/25 04:42:51;;;;;;;1.85;1.30;;;24.20;57.00;;;;;;4972860;28;88799;-13
2021/08/25 04:45:16;;;;;;;1.45;1.00;;;24.20;57.00;;;;;;4971357;28;87593;-16
2021/08/25 04:47:42;;;;;;;3.28;1.30;;;24.20;57.10;;;;;;4971904;28;87170;-15
2021/08/25 04:50:08;;;;;;;1.40;0.90;;;24.20;57.00;;;;;;4971459;28;87887;-16
2021/08/25 04:52:35;;;;;;;1.48;1.10;;;24.20;57.10;;;;;;4973356;28;87975;-13
2021/08/25 04:55:01;;;;;;;1.45;0.98;;;24.20;57.10;;;;;;4973320;28;87932;-13
2021/08/25 04:57:27;;;;;;;2.10;1.33;;;24.20;57.20;;;;;;4973629;28;87583;-16
2021/08/25 04:59:52;;;;;;;1.50;1.02;;;24.20;57.20;;;;;;4972958;28;87239;-13
2021/08/25 05:02:18;;;;;;;1.48;1.02;;;24.20;57.20;;;;;;4972373;28;87786;-16
2021/08/25 05:04:46;;;;;;;1.30;1.00;;;24.20;57.20;;;;;;4972454;28;88619;-13
2021/08/25 05:07:13;;;;;;;1.70;1.23;;;24.10;57.20;;;;;;4972662;28;87620;-13
2021/08/25 05:09:39;;;;;;;2.10;1.00;;;24.10;57.20;;;;;;4972399;28;87825;-13
2021/08/25 05:12:05;;;;;;;1.75;1.08;;;24.10;57.20;;;;;;4973060;28;88386;-17
2021/08/25 05:14:30;;;;;;;3.30;1.10;;;24.10;57.20;;;;;;4973391;28;87781;-14
2021/08/25 05:16:56;;;;;;;1.85;1.10;;;24.10;57.20;;;;;;4973068;28;87153;-15
2021/08/25 05:19:21;;;;;;;1.40;1.00;;;24.10;57.30;;;;;;4972787;28;87620;-14
2021/08/25 05:21:47;;;;;;;1.35;0.93;;;24.20;57.30;;;;;;4971651;28;89057;-14
2021/08/25 05:24:12;;;;;;;1.48;1.10;;;24.10;57.20;;;;;;4972120;28;87850;-13
2021/08/25 05:26:38;;;;;;;1.80;1.42;;;24.20;57.40;;;;;;4972126;28;87617;-13
2021/08/25 05:29:03;;;;;;;1.83;1.27;;;24.20;57.40;;;;;;4971911;28;89120;-13
2021/08/25 05:31:29;;;;;;;1.15;1.05;;;24.20;57.30;;;;;;4972170;28;89639;-13
2021/08/25 05:33:56;;;;;;;3.03;0.98;;;24.20;57.30;;;;;;4971778;28;87819;-16
2021/08/25 05:36:22;;;;;;;1.73;1.20;;;24.20;57.30;;;;;;4971045;28;88285;-13
2021/08/25 05:38:47;;;;;;;1.85;1.00;;;24.20;57.30;;;;;;4971755;28;88260;-13
2021/08/25 05:41:13;;;;;;;1.88;1.20;;;24.20;57.30;;;;;;4971695;28;87878;-12
2021/08/25 05:43:38;;;;;;;1.65;1.00;;;24.20;57.30;;;;;;4972695;28;87553;-14
2021/08/25 05:46:04;;;;;;;1.63;1.25;;;24.30;57.30;;;;;;4972176;28;88297;-16
2021/08/25 05:48:30;;;;;;;2.70;1.40;;;24.20;57.30;;;;;;4971083;28;89023;-14
2021/08/25 05:50:55;;;;;;;1.40;1.02;;;24.30;57.30;;;;;;4971864;28;89096;-15
2021/08/25 05:53:21;;;;;;;1.15;0.60;;;24.30;57.40;;;;;;4969045;28;88857;-12
2021/08/25 05:55:47;;;;;;;1.58;1.00;;;24.30;57.40;;;;;;4970918;28;88199;-13
2021/08/25 05:58:12;;;;;;;1.70;1.10;;;24.30;57.40;;;;;;4971594;28;87967;-16
2021/08/25 06:00:38;;;;;;;1.25;0.90;;;24.30;57.50;;;;;;4971476;28;87373;-15
2021/08/25 06:03:04;;;;;;;1.40;1.00;;;24.30;57.50;;;;;;4971326;28;88183;-14
2021/08/25 06:05:29;;;;;;;1.88;1.02;;;24.30;58.00;;;;;;4971693;28;88012;-14
2021/08/25 06:07:56;;;;;;;1.63;1.23;;;24.30;57.60;;;;;;4972263;28;88011;-13
2021/08/25 06:10:21;;;;;;;2.22;1.20;;;24.40;57.70;;;;;;4972651;28;87976;-13
2021/08/25 06:12:47;;;;;;;2.03;0.95;;;24.40;57.80;;;;;;4972071;28;87828;-13
2021/08/25 06:15:13;;;;;;;2.25;1.27;;;24.40;57.80;;;;;;4971864;28;87975;-17
2021/08/25 06:17:39;;;;;;;1.20;0.85;;;24.40;57.80;;;;;;4969468;28;89154;-14
2021/08/25 06:20:05;;;;;;;1.50;1.10;;;24.40;57.90;;;;;;4970735;28;88735;-14
2021/08/25 06:22:31;;;;;;;1.40;1.00;;;24.40;57.90;;;;;;4971110;28;87148;-13
2021/08/25 06:24:57;;;;;;;1.65;1.08;;;24.50;58.00;;;;;;4970807;28;88194;-13
2021/08/25 06:27:24;;;;;;;2.53;1.10;;;24.50;57.90;;;;;;4970152;28;87527;-16
2021/08/25 06:29:50;;;;;;;2.15;1.15;;;24.50;58.00;;;;;;4971590;28;88072;-15
2021/08/25 06:32:15;;;;;;;1.58;1.05;;;24.50;58.50;;;;;;4971302;28;88143;-15
2021/08/25 06:34:41;;;;;;;2.15;1.23;;;24.50;58.00;;;;;;4969912;28;90503;-14
2021/08/25 06:37:07;;;;;;;1.70;1.15;;;24.50;58.00;;;;;;4969222;28;91127;-13
2021/08/25 06:39:33;;;;;;;1.58;0.93;;;24.60;58.00;;;;;;4970452;28;88118;-13
2021/08/25 06:41:58;;;;;;;1.30;1.08;;;24.60;58.00;;;;;;4970232;28;88598;-13
2021/08/25 06:44:24;;;;;;;1.60;1.20;;;24.60;58.00;;;;;;4971170;28;88118;-13
2021/08/25 06:46:49;;;;;;;1.52;0.88;;;24.60;58.00;;;;;;4971301;28;88081;-13
2021/08/25 06:49:16;;;;;;;3.10;1.08;;;24.60;58.00;;;;;;4971834;28;88021;-13
2021/08/25 06:51:43;;;;;;;2.38;1.30;;;24.70;58.50;;;;;;4971294;28;87591;-14
2021/08/25 06:54:09;;;;;;;4.15;2.22;;;24.70;57.80;;;;;;4970543;28;88344;-14
2021/08/25 06:56:34;;;;;;;5.45;2.65;;;24.70;56.10;;;;;;4967533;28;88489;-16
2021/08/25 06:59:00;;;;;;;16.33;4.50;;;24.60;54.60;;;;;;4970966;28;88239;-16
2021/08/25 07:01:25;;;;;;;9.82;3.65;;;24.60;53.80;;;;;;4970494;28;87386;-13
2021/08/25 07:03:51;;;;;;;10.38;4.10;;;24.60;53.30;;;;;;4971546;28;88161;-16
2021/08/25 07:06:20;;;;;;;8.25;4.10;;;24.50;53.10;;;;;;4970368;28;89149;-13
2021/08/25 07:08:46;;;;;;;7.35;3.70;;;24.60;53.10;;;;;;4970747;28;88820;-13
2021/08/25 07:11:12;;;;;;;10.75;4.38;;;24.50;53.00;;;;;;4970324;28;87515;-13
2021/08/25 07:13:38;;;;;;;14.32;4.28;;;24.50;52.90;;;;;;4971372;28;87825;-14
2021/08/25 07:16:04;;;;;;;9.98;4.72;;;24.50;52.80;;;;;;4971316;28;87596;-14
2021/08/25 07:18:29;;;;;;;13.32;4.53;;;24.50;52.90;;;;;;4970815;28;88103;-15
2021/08/25 07:20:55;;;;;;;9.70;4.30;;;24.50;52.90;;;;;;4971169;28;87945;-13
2021/08/25 07:23:21;;;;;;;9.88;4.50;;;24.50;53.00;;;;;;4966420;28;86982;-13
2021/08/25 07:25:47;;;;;;;9.63;3.95;;;24.50;53.10;;;;;;4969464;28;88894;-14
2021/08/25 07:28:12;;;;;;;9.00;4.13;;;24.50;53.00;;;;;;4969268;28;88513;-13
2021/08/25 07:30:38;;;;;;;13.18;3.90;;;24.40;53.00;;;;;;4969188;28;88658;-14
2021/08/25 07:33:04;;;;;;;7.47;3.88;;;24.50;53.20;;;;;;4941844;28;88248;-15
2021/08/25 07:35:30;;;;;;;10.65;3.95;;;24.50;53.30;;;;;;4968808;28;90080;-13
2021/08/25 07:37:56;;;;;;;9.80;4.78;;;24.50;53.60;;;;;;4969662;28;87719;-14
2021/08/25 07:40:22;;;;;;;10.57;4.55;;;24.50;52.90;;;;;;4969709;28;87755;-16
2021/08/25 07:42:48;;;;;;;10.88;4.35;;;24.50;52.90;;;;;;4968337;28;89062;-15
2021/08/25 07:45:14;;;;;;;7.25;3.90;;;24.50;53.10;;;;;;4969651;28;89151;-13
2021/08/25 07:47:39;;;;;;;8.55;4.50;;;24.50;53.40;;;;;;4970525;28;87232;-13
2021/08/25 07:50:06;;;;;;;7.75;4.18;;;24.50;53.50;;;;;;4969271;28;87710;-13
2021/08/25 07:52:32;;;;;;;10.80;4.60;;;24.50;53.50;;;;;;4969361;28;87662;-14
2021/08/25 07:54:58;;;;;;;9.38;4.32;;;24.50;53.40;;;;;;4967679;28;89019;-13
2021/08/25 07:57:23;;;;;;;9.50;4.32;;;24.50;53.40;;;;;;4968540;28;88855;-13
2021/08/25 07:59:49;;;;;;;9.77;4.57;;;24.50;53.60;;;;;;4969919;28;87710;-13
2021/08/25 08:02:15;;;;;;;25.38;6.25;;;24.50;53.60;;;;;;4968903;28;87489;-13
2021/08/25 08:04:40;;;;;;;45.28;8.77;;;24.60;53.70;;;;;;4969526;28;88138;-12
2021/08/25 08:07:06;;;;;;;48.20;10.18;;;24.60;53.90;;;;;;4967690;28;90856;-12
2021/08/25 08:09:31;;;;;;;38.92;9.65;;;24.60;54.10;;;;;;4968968;28;87160;-13
2021/08/25 08:11:57;;;;;;;36.17;8.75;;;24.60;54.40;;;;;;4969369;28;86818;-14
2021/08/25 08:14:23;;;;;;;31.13;7.93;;;24.70;54.50;;;;;;4970610;28;88360;-14
2021/08/25 08:16:52;;;;;;;30.35;7.47;;;24.60;54.60;;;;;;4967591;28;90773;-17
2021/08/25 08:19:20;;;;;;;23.30;7.05;;;24.70;54.80;;;;;;4966467;28;89035;-13
2021/08/25 08:21:47;;;;;;;23.75;5.60;;;24.70;55.00;;;;;;4969097;28;87923;-14
2021/08/25 08:24:14;;;;;;;21.52;6.38;;;24.70;54.60;;;;;;4970629;28;87618;-14
2021/08/25 08:26:40;;;;;;;18.92;5.55;;;24.70;54.40;;;;;;4970621;28;91022;-14
2021/08/25 08:29:06;;;;;;;16.77;5.47;;;24.70;54.30;;;;;;4968323;28;87453;-13
2021/08/25 08:31:32;;;;;;;13.57;5.00;;;24.70;54.20;;;;;;4972427;28;87679;-15
2021/08/25 08:33:58;;;;;;;21.08;5.32;;;24.70;54.30;;;;;;4972534;28;88335;-14
2021/08/25 08:36:24;;;;;;;14.57;4.03;;;24.80;54.40;;;;;;4972918;28;89238;-17
2021/08/25 08:38:50;;;;;;;11.32;4.13;;;24.80;54.20;;;;;;4973786;28;88073;-14
2021/08/25 08:41:15;;;;;;;16.73;4.85;;;24.80;54.40;;;;;;4988797;22;89904;-83
2021/08/25 08:43:47;;;;;;;12.63;4.90;;;24.80;54.60;;;;;;4969363;28;89166;-81
2021/08/25 08:46:18;;;;;;;10.50;3.92;;;24.80;54.50;;;;;;4970580;28;87930;-81
2021/08/25 08:48:44;;;;;;;14.05;3.33;;;24.80;54.60;;;;;;4972591;28;88160;-81
2021/08/25 08:51:12;;;;;;;12.50;3.47;;;24.80;54.50;;;;;;4972248;28;87806;-80
2021/08/25 08:53:38;;;;;;;11.63;3.78;;;24.80;54.40;;;;;;4960244;28;87963;-81
2021/08/25 08:56:04;;;;;;;9.55;3.60;;;24.80;54.40;;;;;;4961457;28;88831;-82
2021/08/25 08:58:30;;;;;;;12.45;3.72;;;24.80;54.50;;;;;;4961950;28;87561;-82
2021/08/25 09:00:56;;;;;;;12.25;3.92;;;24.80;54.50;;;;;;4958824;28;89086;-81
2021/08/25 09:03:27;;;;;;;10.02;3.75;;;24.80;54.60;;;;;;4956944;28;90654;-81
2021/08/25 09:05:54;;;;;;;9.20;3.40;;;24.80;54.70;;;;;;4963502;28;90577;-79
2021/08/25 09:08:28;;;;;;;14.63;3.83;;;24.80;54.70;;;;;;4963561;28;89179;-81
2021/08/25 09:11:04;;;;;;;12.23;3.42;;;24.90;54.60;;;;;;4943572;28;88091;-81
2021/08/25 09:13:50;;;;;;;9.70;3.78;;;24.80;54.80;;;;;;4964035;28;87742;-82
2021/08/25 09:16:31;;;;;;;8.10;3.17;;;24.90;54.20;;;;;;4963071;28;89119;-82
2021/08/25 09:19:04;;;;;;;9.95;3.40;;;24.90;54.40;;;;;;4960701;28;87926;-82
2021/08/25 09:21:36;;;;;;;7.35;3.53;;;24.90;54.50;;;;;;4963400;28;89206;-82
2021/08/25 09:24:05;;;;;;;11.27;3.60;;;24.90;54.70;;;;;;4957701;28;90458;-81
2021/08/25 09:26:31;;;;;;;10.23;3.40;;;24.90;54.40;;;;;;4960973;28;86804;-81
2021/08/25 09:29:14;;;;;;;11.05;2.97;;;24.90;54.30;;;;;;4964581;28;88155;-82
2021/08/25 09:31:48;;;;;;;9.35;3.45;;;24.90;54.30;;;;;;4961337;28;88124;-82
2021/08/25 09:34:34;;;;;;;8.68;3.30;;;24.90;54.40;;;;;;4953019;28;92322;-81
2021/08/25 09:37:07;;;;;;;8.95;3.08;;;24.90;54.30;;;;;;4963571;28;88565;-81
2021/08/25 09:39:33;;;;;;;7.95;3.28;;;24.90;54.00;;;;;;4962916;28;87359;-82
2021/08/25 09:41:59;;;;;;;6.82;2.90;;;24.90;54.00;;;;;;4967186;28;87176;-82
2021/08/25 09:44:25;;;;;;;7.82;2.83;;;24.90;53.80;;;;;;4960702;28;87760;-81
2021/08/25 09:46:51;;;;;;;9.07;3.20;;;24.90;53.90;;;;;;4944796;28;89952;-84
2021/08/25 09:49:17;;;;;;;8.15;2.60;;;24.90;54.10;;;;;;4964635;28;87230;-81
2021/08/25 09:51:43;;;;;;;10.35;3.00;;;24.90;54.10;;;;;;4962725;28;87086;-81
2021/08/25 09:54:15;;;;;;;9.70;2.97;;;24.90;54.20;;;;;;4964558;28;87984;-81
2021/08/25 09:56:42;;;;;;;6.22;2.58;;;24.90;54.40;;;;;;4961429;28;89747;-81
2021/08/25 09:59:10;;;;;;;10.38;2.85;;;25.00;54.50;;;;;;4957962;28;89203;-81
2021/08/25 10:01:37;;;;;;;7.07;2.88;;;25.00;54.40;;;;;;4978021;28;89273;-82
2021/08/25 10:04:07;;;;;;;7.15;3.30;;;24.90;54.30;;;;;;4956913;28;89389;-82
2021/08/25 10:06:37;;;;;;;6.68;2.75;;;25.00;54.40;;;;;;4961238;28;90537;-81
2021/08/25 10:09:07;;;;;;;7.18;3.30;;;25.00;54.50;;;;;;4963642;28;88022;-81
2021/08/25 10:11:36;;;;;;;9.48;3.47;;;24.90;54.30;;;;;;4960908;28;88733;-81
2021/08/25 10:14:31;;;;;;;7.07;2.58;;;24.90;54.30;;;;;;4960797;28;90402;-82
2021/08/25 10:16:57;;;;;;;7.25;2.78;;;24.90;54.30;;;;;;4978857;28;90021;-81
2021/08/25 10:19:29;;;;;;;6.32;3.08;;;24.90;54.00;;;;;;4959852;28;87336;-80
2021/08/25 10:22:00;;;;;;;6.15;2.80;;;24.90;53.70;;;;;;4980031;28;88859;-81
2021/08/25 10:24:27;;;;;;;6.70;3.22;;;25.00;53.80;;;;;;4959169;28;91176;-82
2021/08/25 10:26:58;;;;;;;10.13;2.88;;;24.90;53.60;;;;;;4964412;28;88364;-82
2021/08/25 10:29:25;;;;;;;11.48;2.80;;;24.90;53.50;;;;;;4962175;28;87174;-82
2021/08/25 10:31:57;;;;;;;5.10;2.75;;;24.90;53.80;;;;;;4961365;28;89028;-81
2021/08/25 10:34:25;;;;;;;10.65;2.63;;;25.00;53.90;;;;;;4964247;28;88338;-83
2021/08/25 10:36:51;;;;;;;9.50;2.83;;;25.00;54.00;;;;;;4961519;28;90587;-82
2021/08/25 10:39:29;;;;;;;10.50;2.97;;;25.00;54.10;;;;;;4961189;28;87174;-81
2021/08/25 10:41:55;;;;;;;10.82;2.75;;;24.90;54.00;;;;;;4961177;28;87355;-81
2021/08/25 10:44:40;;;;;;;5.75;2.83;;;25.00;53.80;;;;;;4962605;28;87920;-82
2021/08/25 10:47:10;;;;;;;7.00;2.80;;;25.00;53.50;;;;;;4961446;28;88283;-81
2021/08/25 10:49:39;;;;;;;8.60;2.90;;;25.00;53.60;;;;;;4963378;28;88859;-82
2021/08/25 10:52:13;;;;;;;7.18;2.90;;;24.90;53.50;;;;;;4963129;28;87991;-82
2021/08/25 10:54:49;;;;;;;10.85;2.80;;;25.00;53.60;;;;;;4958841;28;88551;-82
2021/08/25 10:57:20;;;;;;;5.95;2.60;;;24.90;53.60;;;;;;4963113;28;90296;-82
2021/08/25 10:59:46;;;;;;;5.43;2.63;;;24.90;53.70;;;;;;4964268;28;88243;-82
2021/08/25 11:02:12;;;;;;;11.02;2.75;;;24.90;53.70;;;;;;4955504;28;88652;-82
2021/08/25 11:04:38;;;;;;;7.70;2.80;;;24.90;53.70;;;;;;4962591;28;88741;-81
2021/08/25 11:07:10;;;;;;;8.82;3.17;;;24.90;53.80;;;;;;4958934;28;90254;-82
2021/08/25 11:09:46;;;;;;;6.05;2.58;;;24.90;53.80;;;;;;4965303;28;88061;-82
2021/08/25 11:12:15;;;;;;;6.00;2.70;;;24.90;53.90;;;;;;4945598;28;88553;-82
2021/08/25 11:14:51;;;;;;;5.65;2.50;;;24.90;54.00;;;;;;4960958;28;90737;-81
2021/08/25 11:17:24;;;;;;;5.45;2.72;;;24.90;54.00;;;;;;4962970;28;91630;-81
2021/08/25 11:20:00;;;;;;;7.40;3.00;;;24.90;54.10;;;;;;4962887;28;87123;-81
2021/08/25 11:22:31;;;;;;;5.15;2.75;;;24.90;54.10;;;;;;4959453;28;87827;-82
2021/08/25 11:25:17;;;;;;;6.45;2.67;;;24.90;54.10;;;;;;4959173;28;89786;-82
2021/08/25 11:27:47;;;;;;;5.18;2.63;;;24.90;54.20;;;;;;4959807;28;90521;-81
2021/08/25 11:30:17;;;;;;;6.45;2.85;;;24.80;54.20;;;;;;4957426;28;87713;-82
2021/08/25 11:32:46;;;;;;;5.63;2.88;;;24.90;54.20;;;;;;4960701;28;89404;-82
2021/08/25 11:35:13;;;;;;;7.80;2.92;;;24.80;54.20;;;;;;4963517;28;88182;-82
2021/08/25 11:37:43;;;;;;;4.72;2.60;;;24.80;54.20;;;;;;4975807;28;88611;-83
2021/08/25 11:40:09;;;;;;;7.25;2.83;;;24.80;54.20;;;;;;4961737;28;89406;-82
2021/08/25 11:42:36;;;;;;;5.15;2.63;;;24.90;54.40;;;;;;4959675;28;88244;-82
2021/08/25 11:45:32;;;;;;;5.80;2.70;;;24.90;54.40;;;;;;4958959;28;89950;-82
2021/08/25 11:47:58;;;;;;;4.90;2.53;;;24.90;54.40;;;;;;4965870;28;87973;-81
2021/08/25 11:50:26;;;;;;;5.28;2.30;;;24.80;54.40;;;;;;4944919;28;88280;-83
2021/08/25 11:52:52;;;;;;;6.78;3.00;;;24.90;54.50;;;;;;4963485;28;89143;-82
2021/08/25 11:55:18;;;;;;;6.22;2.33;;;24.90;54.50;;;;;;4959449;28;90211;-82
2021/08/25 11:57:47;;;;;;;5.25;2.60;;;24.80;54.40;;;;;;4962006;28;90500;-82
2021/08/25 12:00:15;;;;;;;4.43;2.45;;;24.90;54.50;;;;;;4962008;28;87159;-82
2021/08/25 12:03:00;;;;;;;4.07;2.53;;;24.90;54.50;;;;;;4982737;28;90368;-83
2021/08/25 12:05:51;;;;;;;4.65;2.35;;;24.90;54.50;;;;;;4967954;28;88006;-82
2021/08/25 12:08:16;;;;;;;5.75;2.67;;;24.80;55.00;;;;;;4947296;28;91451;-82
2021/08/25 12:10:44;;;;;;;4.53;2.47;;;24.90;54.60;;;;;;4965199;28;87472;-83
2021/08/25 12:13:40;;;;;;;6.25;2.63;;;24.80;54.60;;;;;;4963871;28;87999;-82
2021/08/25 12:16:10;;;;;;;7.07;2.70;;;24.90;54.70;;;;;;4960681;28;88699;-82
2021/08/25 12:18:47;;;;;;;5.63;2.80;;;24.80;54.50;;;;;;4979474;28;88032;-82
2021/08/25 12:21:14;;;;;;;3.42;2.40;;;24.90;54.60;;;;;;4980516;28;87597;-82
2021/08/25 12:24:07;;;;;;;3.97;2.40;;;24.80;54.50;;;;;;4964518;28;89599;-81
2021/08/25 12:26:35;;;;;;;5.35;2.63;;;24.80;54.50;;;;;;4963346;28;88411;-82
2021/08/25 12:29:03;;;;;;;6.50;2.63;;;24.90;54.40;;;;;;4965073;28;87934;-81
2021/08/25 12:31:31;;;;;;;3.35;2.20;;;24.90;54.10;;;;;;4960704;28;88896;-82
2021/08/25 12:34:12;;;;;;;6.47;2.60;;;24.90;53.80;;;;;;4963000;28;89464;-82
2021/08/25 12:36:40;;;;;;;4.70;2.50;;;24.90;53.70;;;;;;4962054;28;90778;-81
2021/08/25 12:39:05;;;;;;;7.95;2.80;;;24.90;53.60;;;;;;4965878;28;87638;-82
2021/08/25 12:41:36;;;;;;;4.30;2.40;;;24.90;53.30;;;;;;4964976;28;88253;-83
2021/08/25 12:44:02;;;;;;;4.75;2.80;;;24.90;53.20;;;;;;4965327;28;87852;-81
2021/08/25 12:46:28;;;;;;;7.30;2.72;;;24.90;53.10;;;;;;4963416;28;88285;-82
2021/08/25 12:48:53;;;;;;;5.20;2.97;;;24.80;53.20;;;;;;4967845;28;89343;-81